sensor_id;sensor_type;location;lat;lon;timestamp;P1;durP1;ratioP1;P2;durP2;ratioP2
15748;SDS011;7976;52.526;13.326;2024-01-30T00:00:04;14.88;;;4.70;;
15748;SDS011;7976;52.526;13.326;2024-01-30T00:02:34;13.68;;;4.80;;
15748;SDS011;7976;52.526;13.326;2024-01-30T00:05:01;14.95;;;5.07;;
15748;SDS011;7976;52.526;13.326;2024-01-30T00:07:29;14.95;;;5.07;;
15748;SDS011;7976;52.526;13.326;2024-01-30T00:09:56;17.42;;;4.78;;
15748;SDS011;7976;52.526;13.326;2024-01-30T00:12:24;13.38;;;4.72;;
15748;SDS011;7976;52.526;13.326;2024-01-30T00:14:51;14.35;;;4.88;;
15748;SDS011;7976;52.526;13.326;2024-01-30T00:17:18;13.23;;;4.28;;
15748;SDS011;7976;52.526;13.326;2024-01-30T00:19:47;13.48;;;4.43;;
15748;SDS011;7976;52.526;13.326;2024-01-30T00:22:14;13.90;;;4.75;;
15748;SDS011;7976;52.526;13.326;2024-01-30T00:24:40;14.75;;;4.60;;
15748;SDS011;7976;52.526;13.326;2024-01-30T00:27:07;15.27;;;5.53;;
15748;SDS011;7976;52.526;13.326;2024-01-30T00:29:34;12.98;;;4.47;;
15748;SDS011;7976;52.526;13.326;2024-01-30T00:32:01;12.40;;;4.05;;
15748;SDS011;7976;52.526;13.326;2024-01-30T00:34:28;15.45;;;4.82;;
15748;SDS011;7976;52.526;13.326;2024-01-30T00:36:56;12.52;;;5.05;;
15748;SDS011;7976;52.526;13.326;2024-01-30T00:39:23;14.13;;;4.88;;
15748;SDS011;7976;52.526;13.326;2024-01-30T00:41:50;13.32;;;4.85;;
15748;SDS011;7976;52.526;13.326;2024-01-30T00:44:19;14.63;;;5.07;;
15748;SDS011;7976;52.526;13.326;2024-01-30T00:46:46;11.93;;;4.13;;
15748;SDS011;7976;52.526;13.326;2024-01-30T00:49:13;11.75;;;4.60;;
15748;SDS011;7976;52.526;13.326;2024-01-30T00:51:40;14.55;;;4.90;;
15748;SDS011;7976;52.526;13.326;2024-01-30T00:54:08;14.43;;;4.22;;
15748;SDS011;7976;52.526;13.326;2024-01-30T00:56:35;13.30;;;4.55;;
15748;SDS011;7976;52.526;13.326;2024-01-30T00:59:01;12.05;;;4.28;;
15748;SDS011;7976;52.526;13.326;2024-01-30T01:01:28;14.35;;;4.50;;
15748;SDS011;7976;52.526;13.326;2024-01-30T01:03:55;13.25;;;4.55;;
15748;SDS011;7976;52.526;13.326;2024-01-30T01:06:23;12.95;;;4.53;;
15748;SDS011;7976;52.526;13.326;2024-01-30T01:08:50;13.65;;;4.47;;
15748;SDS011;7976;52.526;13.326;2024-01-30T01:11:18;12.27;;;4.32;;
15748;SDS011;7976;52.526;13.326;2024-01-30T01:13:45;13.00;;;4.43;;
15748;SDS011;7976;52.526;13.326;2024-01-30T01:16:11;12.38;;;4.28;;
15748;SDS011;7976;52.526;13.326;2024-01-30T01:18:38;10.70;;;4.18;;
15748;SDS011;7976;52.526;13.326;2024-01-30T01:21:05;15.85;;;4.75;;
15748;SDS011;7976;52.526;13.326;2024-01-30T01:23:32;14.80;;;4.53;;
15748;SDS011;7976;52.526;13.326;2024-01-30T01:25:59;12.75;;;4.32;;
15748;SDS011;7976;52.526;13.326;2024-01-30T01:28:27;15.05;;;4.60;;
15748;SDS011;7976;52.526;13.326;2024-01-30T01:30:54;12.00;;;4.47;;
15748;SDS011;7976;52.526;13.326;2024-01-30T01:33:24;13.20;;;4.32;;
15748;SDS011;7976;52.526;13.326;2024-01-30T01:35:51;13.30;;;4.40;;
15748;SDS011;7976;52.526;13.326;2024-01-30T01:38:18;11.75;;;4.38;;
15748;SDS011;7976;52.526;13.326;2024-01-30T01:40:44;15.63;;;4.60;;
15748;SDS011;7976;52.526;13.326;2024-01-30T01:43:11;13.30;;;4.47;;
15748;SDS011;7976;52.526;13.326;2024-01-30T01:45:39;12.88;;;4.47;;
15748;SDS011;7976;52.526;13.326;2024-01-30T01:48:06;14.65;;;5.07;;
15748;SDS011;7976;52.526;13.326;2024-01-30T01:50:34;15.57;;;4.30;;
15748;SDS011;7976;52.526;13.326;2024-01-30T01:53:03;12.77;;;4.13;;
15748;SDS011;7976;52.526;13.326;2024-01-30T01:55:33;11.30;;;4.10;;
15748;SDS011;7976;52.526;13.326;2024-01-30T01:58:01;12.93;;;4.32;;
15748;SDS011;7976;52.526;13.326;2024-01-30T02:00:29;11.65;;;3.97;;
15748;SDS011;7976;52.526;13.326;2024-01-30T02:02:58;10.95;;;4.28;;
15748;SDS011;7976;52.526;13.326;2024-01-30T02:05:26;11.93;;;4.07;;
15748;SDS011;7976;52.526;13.326;2024-01-30T02:07:53;14.52;;;4.43;;
15748;SDS011;7976;52.526;13.326;2024-01-30T02:10:22;14.77;;;4.28;;
15748;SDS011;7976;52.526;13.326;2024-01-30T02:12:49;11.38;;;4.63;;
15748;SDS011;7976;52.526;13.326;2024-01-30T02:19:23;14.43;;;4.28;;
15748;SDS011;7976;52.526;13.326;2024-01-30T02:21:51;13.27;;;4.38;;
15748;SDS011;7976;52.526;13.326;2024-01-30T02:24:19;17.80;;;4.88;;
15748;SDS011;7976;52.526;13.326;2024-01-30T02:26:46;13.68;;;4.57;;
15748;SDS011;7976;52.526;13.326;2024-01-30T02:29:13;12.23;;;4.72;;
15748;SDS011;7976;52.526;13.326;2024-01-30T02:31:40;11.50;;;4.30;;
15748;SDS011;7976;52.526;13.326;2024-01-30T02:34:07;13.48;;;4.50;;
15748;SDS011;7976;52.526;13.326;2024-01-30T02:36:34;13.55;;;4.25;;
15748;SDS011;7976;52.526;13.326;2024-01-30T02:39:02;15.50;;;4.95;;
15748;SDS011;7976;52.526;13.326;2024-01-30T02:41:30;14.05;;;4.38;;
15748;SDS011;7976;52.526;13.326;2024-01-30T02:43:57;13.63;;;4.95;;
15748;SDS011;7976;52.526;13.326;2024-01-30T02:46:23;14.38;;;5.05;;
15748;SDS011;7976;52.526;13.326;2024-01-30T02:48:50;12.50;;;4.32;;
15748;SDS011;7976;52.526;13.326;2024-01-30T02:51:17;12.60;;;4.65;;
15748;SDS011;7976;52.526;13.326;2024-01-30T02:53:44;14.07;;;4.32;;
15748;SDS011;7976;52.526;13.326;2024-01-30T02:56:13;12.88;;;4.80;;
15748;SDS011;7976;52.526;13.326;2024-01-30T02:58:41;14.60;;;4.88;;
15748;SDS011;7976;52.526;13.326;2024-01-30T03:01:08;13.20;;;5.30;;
15748;SDS011;7976;52.526;13.326;2024-01-30T03:03:34;13.77;;;4.53;;
15748;SDS011;7976;52.526;13.326;2024-01-30T03:06:01;13.05;;;4.85;;
15748;SDS011;7976;52.526;13.326;2024-01-30T03:08:28;14.57;;;4.55;;
15748;SDS011;7976;52.526;13.326;2024-01-30T03:10:55;15.68;;;4.95;;
15748;SDS011;7976;52.526;13.326;2024-01-30T03:13:23;15.82;;;4.80;;
15748;SDS011;7976;52.526;13.326;2024-01-30T03:15:50;17.35;;;5.60;;
15748;SDS011;7976;52.526;13.326;2024-01-30T03:18:17;15.77;;;5.40;;
15748;SDS011;7976;52.526;13.326;2024-01-30T03:20:44;12.90;;;4.47;;
15748;SDS011;7976;52.526;13.326;2024-01-30T03:23:11;11.30;;;4.57;;
15748;SDS011;7976;52.526;13.326;2024-01-30T03:25:38;13.48;;;4.95;;
15748;SDS011;7976;52.526;13.326;2024-01-30T03:28:05;13.90;;;5.00;;
15748;SDS011;7976;52.526;13.326;2024-01-30T03:30:33;14.50;;;4.90;;
15748;SDS011;7976;52.526;13.326;2024-01-30T03:33:01;14.32;;;5.10;;
15748;SDS011;7976;52.526;13.326;2024-01-30T03:35:27;11.75;;;4.45;;
15748;SDS011;7976;52.526;13.326;2024-01-30T03:37:54;14.88;;;4.95;;
15748;SDS011;7976;52.526;13.326;2024-01-30T03:40:21;16.10;;;4.97;;
15748;SDS011;7976;52.526;13.326;2024-01-30T03:42:48;15.45;;;4.93;;
15748;SDS011;7976;52.526;13.326;2024-01-30T03:45:15;14.77;;;5.25;;
15748;SDS011;7976;52.526;13.326;2024-01-30T03:47:46;11.45;;;4.20;;
15748;SDS011;7976;52.526;13.326;2024-01-30T03:50:13;11.23;;;4.40;;
15748;SDS011;7976;52.526;13.326;2024-01-30T03:52:40;12.90;;;4.20;;
15748;SDS011;7976;52.526;13.326;2024-01-30T03:55:07;13.02;;;4.68;;
15748;SDS011;7976;52.526;13.326;2024-01-30T03:57:34;14.98;;;5.13;;
15748;SDS011;7976;52.526;13.326;2024-01-30T04:00:01;13.40;;;4.60;;
15748;SDS011;7976;52.526;13.326;2024-01-30T04:02:37;12.95;;;5.20;;
15748;SDS011;7976;52.526;13.326;2024-01-30T04:05:05;12.43;;;4.45;;
15748;SDS011;7976;52.526;13.326;2024-01-30T04:07:33;14.70;;;4.80;;
15748;SDS011;7976;52.526;13.326;2024-01-30T04:10:00;15.48;;;5.30;;
15748;SDS011;7976;52.526;13.326;2024-01-30T04:12:28;13.93;;;4.72;;
15748;SDS011;7976;52.526;13.326;2024-01-30T04:14:55;15.48;;;4.65;;
15748;SDS011;7976;52.526;13.326;2024-01-30T04:17:22;12.40;;;4.45;;
15748;SDS011;7976;52.526;13.326;2024-01-30T04:19:49;12.50;;;4.35;;
15748;SDS011;7976;52.526;13.326;2024-01-30T04:22:17;13.40;;;4.30;;
15748;SDS011;7976;52.526;13.326;2024-01-30T04:24:44;14.57;;;4.70;;
15748;SDS011;7976;52.526;13.326;2024-01-30T04:27:11;11.70;;;4.45;;
15748;SDS011;7976;52.526;13.326;2024-01-30T04:29:38;16.23;;;4.78;;
15748;SDS011;7976;52.526;13.326;2024-01-30T04:32:05;13.80;;;4.93;;
15748;SDS011;7976;52.526;13.326;2024-01-30T04:34:32;12.52;;;4.32;;
15748;SDS011;7976;52.526;13.326;2024-01-30T04:36:59;12.13;;;4.38;;
15748;SDS011;7976;52.526;13.326;2024-01-30T04:39:27;13.90;;;5.13;;
15748;SDS011;7976;52.526;13.326;2024-01-30T04:41:54;14.85;;;4.72;;
15748;SDS011;7976;52.526;13.326;2024-01-30T04:44:21;12.20;;;4.43;;
15748;SDS011;7976;52.526;13.326;2024-01-30T04:46:48;12.98;;;4.65;;
15748;SDS011;7976;52.526;13.326;2024-01-30T04:49:15;11.77;;;4.78;;
15748;SDS011;7976;52.526;13.326;2024-01-30T04:51:42;12.50;;;4.88;;
15748;SDS011;7976;52.526;13.326;2024-01-30T04:54:08;13.80;;;4.85;;
15748;SDS011;7976;52.526;13.326;2024-01-30T04:56:36;12.68;;;4.47;;
15748;SDS011;7976;52.526;13.326;2024-01-30T04:59:04;11.95;;;4.38;;
15748;SDS011;7976;52.526;13.326;2024-01-30T05:01:33;13.77;;;4.95;;
15748;SDS011;7976;52.526;13.326;2024-01-30T05:04:00;15.48;;;5.55;;
15748;SDS011;7976;52.526;13.326;2024-01-30T05:06:28;13.07;;;4.90;;
15748;SDS011;7976;52.526;13.326;2024-01-30T05:08:55;14.25;;;4.60;;
15748;SDS011;7976;52.526;13.326;2024-01-30T05:11:22;12.75;;;4.47;;
15748;SDS011;7976;52.526;13.326;2024-01-30T05:13:51;10.85;;;4.07;;
15748;SDS011;7976;52.526;13.326;2024-01-30T05:16:17;14.27;;;4.95;;
15748;SDS011;7976;52.526;13.326;2024-01-30T05:18:44;11.55;;;4.53;;
15748;SDS011;7976;52.526;13.326;2024-01-30T05:21:11;12.30;;;4.65;;
15748;SDS011;7976;52.526;13.326;2024-01-30T05:23:38;13.48;;;4.68;;
15748;SDS011;7976;52.526;13.326;2024-01-30T05:26:07;14.60;;;4.82;;
15748;SDS011;7976;52.526;13.326;2024-01-30T05:28:34;14.10;;;5.10;;
15748;SDS011;7976;52.526;13.326;2024-01-30T05:31:03;14.15;;;4.85;;
15748;SDS011;7976;52.526;13.326;2024-01-30T05:33:30;13.75;;;4.95;;
15748;SDS011;7976;52.526;13.326;2024-01-30T05:35:57;13.65;;;4.65;;
15748;SDS011;7976;52.526;13.326;2024-01-30T05:38:24;12.75;;;4.90;;
15748;SDS011;7976;52.526;13.326;2024-01-30T05:40:51;18.13;;;4.90;;
15748;SDS011;7976;52.526;13.326;2024-01-30T05:43:18;13.35;;;4.65;;
15748;SDS011;7976;52.526;13.326;2024-01-30T05:45:45;14.52;;;4.78;;
15748;SDS011;7976;52.526;13.326;2024-01-30T05:48:13;13.80;;;4.55;;
15748;SDS011;7976;52.526;13.326;2024-01-30T05:50:40;12.73;;;4.78;;
15748;SDS011;7976;52.526;13.326;2024-01-30T05:53:07;13.35;;;4.88;;
15748;SDS011;7976;52.526;13.326;2024-01-30T05:55:34;13.75;;;5.03;;
15748;SDS011;7976;52.526;13.326;2024-01-30T05:58:01;15.77;;;5.32;;
15748;SDS011;7976;52.526;13.326;2024-01-30T06:00:29;14.75;;;4.95;;
15748;SDS011;7976;52.526;13.326;2024-01-30T06:02:56;13.23;;;4.85;;
15748;SDS011;7976;52.526;13.326;2024-01-30T06:05:24;12.93;;;4.57;;
15748;SDS011;7976;52.526;13.326;2024-01-30T06:07:51;11.38;;;4.53;;
15748;SDS011;7976;52.526;13.326;2024-01-30T06:10:18;14.35;;;4.95;;
15748;SDS011;7976;52.526;13.326;2024-01-30T06:12:45;17.92;;;5.85;;
15748;SDS011;7976;52.526;13.326;2024-01-30T06:15:13;17.15;;;5.65;;
15748;SDS011;7976;52.526;13.326;2024-01-30T06:17:40;15.10;;;5.43;;
15748;SDS011;7976;52.526;13.326;2024-01-30T06:20:07;15.02;;;5.50;;
15748;SDS011;7976;52.526;13.326;2024-01-30T06:22:35;16.58;;;5.43;;
15748;SDS011;7976;52.526;13.326;2024-01-30T06:25:03;20.02;;;6.05;;
15748;SDS011;7976;52.526;13.326;2024-01-30T06:27:30;15.88;;;6.00;;
15748;SDS011;7976;52.526;13.326;2024-01-30T06:29:58;14.38;;;4.57;;
15748;SDS011;7976;52.526;13.326;2024-01-30T06:32:25;17.60;;;5.72;;
15748;SDS011;7976;52.526;13.326;2024-01-30T06:34:52;16.45;;;4.97;;
15748;SDS011;7976;52.526;13.326;2024-01-30T06:37:19;15.15;;;5.25;;
15748;SDS011;7976;52.526;13.326;2024-01-30T06:39:48;13.95;;;5.18;;
15748;SDS011;7976;52.526;13.326;2024-01-30T06:42:15;15.07;;;4.97;;
15748;SDS011;7976;52.526;13.326;2024-01-30T06:44:42;18.05;;;4.88;;
15748;SDS011;7976;52.526;13.326;2024-01-30T06:47:09;15.07;;;5.40;;
15748;SDS011;7976;52.526;13.326;2024-01-30T06:49:36;15.95;;;5.20;;
15748;SDS011;7976;52.526;13.326;2024-01-30T06:52:04;15.05;;;4.65;;
15748;SDS011;7976;52.526;13.326;2024-01-30T06:54:32;16.98;;;5.65;;
15748;SDS011;7976;52.526;13.326;2024-01-30T06:57:01;17.45;;;5.50;;
15748;SDS011;7976;52.526;13.326;2024-01-30T06:59:28;15.25;;;4.70;;
15748;SDS011;7976;52.526;13.326;2024-01-30T07:01:55;15.85;;;5.18;;
15748;SDS011;7976;52.526;13.326;2024-01-30T07:04:22;16.17;;;5.55;;
15748;SDS011;7976;52.526;13.326;2024-01-30T07:06:49;15.13;;;5.20;;
15748;SDS011;7976;52.526;13.326;2024-01-30T07:09:18;17.90;;;5.88;;
15748;SDS011;7976;52.526;13.326;2024-01-30T07:11:45;18.08;;;5.80;;
15748;SDS011;7976;52.526;13.326;2024-01-30T07:14:13;16.90;;;5.50;;
15748;SDS011;7976;52.526;13.326;2024-01-30T07:16:41;15.05;;;4.88;;
15748;SDS011;7976;52.526;13.326;2024-01-30T07:19:08;13.55;;;5.40;;
15748;SDS011;7976;52.526;13.326;2024-01-30T07:21:35;18.88;;;5.35;;
15748;SDS011;7976;52.526;13.326;2024-01-30T07:24:05;15.23;;;6.07;;
15748;SDS011;7976;52.526;13.326;2024-01-30T07:26:32;19.92;;;5.90;;
15748;SDS011;7976;52.526;13.326;2024-01-30T07:29:00;17.20;;;5.95;;
15748;SDS011;7976;52.526;13.326;2024-01-30T07:31:29;14.38;;;5.38;;
15748;SDS011;7976;52.526;13.326;2024-01-30T07:33:58;15.18;;;5.72;;
15748;SDS011;7976;52.526;13.326;2024-01-30T07:36:25;16.00;;;5.43;;
15748;SDS011;7976;52.526;13.326;2024-01-30T07:38:52;18.85;;;6.22;;
15748;SDS011;7976;52.526;13.326;2024-01-30T07:41:19;15.70;;;6.20;;
15748;SDS011;7976;52.526;13.326;2024-01-30T07:43:46;16.58;;;5.68;;
15748;SDS011;7976;52.526;13.326;2024-01-30T07:46:13;13.48;;;5.60;;
15748;SDS011;7976;52.526;13.326;2024-01-30T07:48:44;20.90;;;5.90;;
15748;SDS011;7976;52.526;13.326;2024-01-30T07:51:11;16.33;;;6.28;;
15748;SDS011;7976;52.526;13.326;2024-01-30T07:53:38;13.55;;;5.60;;
15748;SDS011;7976;52.526;13.326;2024-01-30T07:56:05;16.90;;;5.55;;
15748;SDS011;7976;52.526;13.326;2024-01-30T07:58:33;14.18;;;5.32;;
15748;SDS011;7976;52.526;13.326;2024-01-30T08:01:00;13.80;;;5.72;;
15748;SDS011;7976;52.526;13.326;2024-01-30T08:03:28;14.82;;;5.70;;
15748;SDS011;7976;52.526;13.326;2024-01-30T08:05:56;15.45;;;5.68;;
15748;SDS011;7976;52.526;13.326;2024-01-30T08:08:23;17.23;;;5.63;;
15748;SDS011;7976;52.526;13.326;2024-01-30T08:10:51;15.82;;;6.03;;
15748;SDS011;7976;52.526;13.326;2024-01-30T08:13:18;16.80;;;5.13;;
15748;SDS011;7976;52.526;13.326;2024-01-30T08:15:45;12.70;;;5.25;;
15748;SDS011;7976;52.526;13.326;2024-01-30T08:18:12;17.33;;;5.50;;
15748;SDS011;7976;52.526;13.326;2024-01-30T08:20:39;14.18;;;5.43;;
15748;SDS011;7976;52.526;13.326;2024-01-30T08:23:07;24.23;;;11.52;;
15748;SDS011;7976;52.526;13.326;2024-01-30T08:25:35;39.67;;;22.42;;
15748;SDS011;7976;52.526;13.326;2024-01-30T08:28:03;30.10;;;16.42;;
15748;SDS011;7976;52.526;13.326;2024-01-30T08:30:30;20.63;;;10.30;;
15748;SDS011;7976;52.526;13.326;2024-01-30T08:32:57;23.88;;;9.00;;
15748;SDS011;7976;52.526;13.326;2024-01-30T08:35:25;16.85;;;7.03;;
15748;SDS011;7976;52.526;13.326;2024-01-30T08:37:52;24.27;;;7.38;;
15748;SDS011;7976;52.526;13.326;2024-01-30T08:40:20;24.58;;;6.95;;
15748;SDS011;7976;52.526;13.326;2024-01-30T08:42:47;20.42;;;5.63;;
15748;SDS011;7976;52.526;13.326;2024-01-30T08:45:14;21.85;;;6.97;;
15748;SDS011;7976;52.526;13.326;2024-01-30T08:47:41;19.20;;;5.93;;
15748;SDS011;7976;52.526;13.326;2024-01-30T08:50:08;15.93;;;5.65;;
15748;SDS011;7976;52.526;13.326;2024-01-30T08:52:35;18.33;;;5.40;;
15748;SDS011;7976;52.526;13.326;2024-01-30T08:55:02;17.42;;;6.05;;
15748;SDS011;7976;52.526;13.326;2024-01-30T08:57:31;19.38;;;6.32;;
15748;SDS011;7976;52.526;13.326;2024-01-30T08:59:58;12.88;;;4.72;;
15748;SDS011;7976;52.526;13.326;2024-01-30T09:02:25;14.02;;;5.80;;
15748;SDS011;7976;52.526;13.326;2024-01-30T09:04:54;14.00;;;5.30;;
15748;SDS011;7976;52.526;13.326;2024-01-30T09:07:21;15.60;;;5.85;;
15748;SDS011;7976;52.526;13.326;2024-01-30T09:09:47;18.27;;;6.15;;
15748;SDS011;7976;52.526;13.326;2024-01-30T09:12:14;16.33;;;5.32;;
15748;SDS011;7976;52.526;13.326;2024-01-30T09:14:42;16.42;;;6.05;;
15748;SDS011;7976;52.526;13.326;2024-01-30T09:17:09;15.00;;;6.43;;
15748;SDS011;7976;52.526;13.326;2024-01-30T09:19:36;14.40;;;5.65;;
15748;SDS011;7976;52.526;13.326;2024-01-30T09:22:04;15.68;;;5.95;;
15748;SDS011;7976;52.526;13.326;2024-01-30T09:24:31;14.73;;;5.28;;
15748;SDS011;7976;52.526;13.326;2024-01-30T09:26:58;16.25;;;5.78;;
15748;SDS011;7976;52.526;13.326;2024-01-30T09:29:26;14.45;;;5.07;;
15748;SDS011;7976;52.526;13.326;2024-01-30T09:31:54;16.58;;;5.70;;
15748;SDS011;7976;52.526;13.326;2024-01-30T09:34:21;15.60;;;5.68;;
15748;SDS011;7976;52.526;13.326;2024-01-30T09:36:48;15.23;;;5.43;;
15748;SDS011;7976;52.526;13.326;2024-01-30T09:39:15;14.55;;;5.38;;
15748;SDS011;7976;52.526;13.326;2024-01-30T09:41:45;17.92;;;6.82;;
15748;SDS011;7976;52.526;13.326;2024-01-30T09:44:18;14.68;;;6.25;;
15748;SDS011;7976;52.526;13.326;2024-01-30T09:46:46;17.75;;;5.53;;
15748;SDS011;7976;52.526;13.326;2024-01-30T09:49:15;14.82;;;5.70;;
15748;SDS011;7976;52.526;13.326;2024-01-30T09:51:44;14.27;;;5.07;;
15748;SDS011;7976;52.526;13.326;2024-01-30T09:54:12;18.50;;;5.75;;
15748;SDS011;7976;52.526;13.326;2024-01-30T09:56:41;15.07;;;5.28;;
15748;SDS011;7976;52.526;13.326;2024-01-30T09:59:08;16.98;;;5.25;;
15748;SDS011;7976;52.526;13.326;2024-01-30T10:01:35;20.33;;;6.45;;
15748;SDS011;7976;52.526;13.326;2024-01-30T10:04:03;16.95;;;6.45;;
15748;SDS011;7976;52.526;13.326;2024-01-30T10:06:32;20.85;;;6.95;;
15748;SDS011;7976;52.526;13.326;2024-01-30T10:09:00;15.90;;;6.07;;
15748;SDS011;7976;52.526;13.326;2024-01-30T10:11:27;17.92;;;5.70;;
15748;SDS011;7976;52.526;13.326;2024-01-30T10:13:54;15.18;;;5.32;;
15748;SDS011;7976;52.526;13.326;2024-01-30T10:16:20;16.20;;;5.55;;
15748;SDS011;7976;52.526;13.326;2024-01-30T10:18:47;15.85;;;5.75;;
15748;SDS011;7976;52.526;13.326;2024-01-30T10:21:14;13.27;;;5.15;;
15748;SDS011;7976;52.526;13.326;2024-01-30T10:23:43;11.68;;;5.03;;
15748;SDS011;7976;52.526;13.326;2024-01-30T10:26:10;15.63;;;5.00;;
15748;SDS011;7976;52.526;13.326;2024-01-30T10:28:37;16.00;;;5.40;;
15748;SDS011;7976;52.526;13.326;2024-01-30T10:31:04;13.70;;;5.30;;
15748;SDS011;7976;52.526;13.326;2024-01-30T10:33:31;17.48;;;4.97;;
15748;SDS011;7976;52.526;13.326;2024-01-30T10:36:00;15.57;;;5.13;;
15748;SDS011;7976;52.526;13.326;2024-01-30T10:38:29;12.15;;;4.80;;
15748;SDS011;7976;52.526;13.326;2024-01-30T10:41:00;15.27;;;5.05;;
15748;SDS011;7976;52.526;13.326;2024-01-30T10:43:30;13.55;;;5.13;;
15748;SDS011;7976;52.526;13.326;2024-01-30T10:46:04;16.88;;;4.72;;
15748;SDS011;7976;52.526;13.326;2024-01-30T10:48:40;16.63;;;5.75;;
15748;SDS011;7976;52.526;13.326;2024-01-30T10:51:10;17.05;;;5.05;;
15748;SDS011;7976;52.526;13.326;2024-01-30T10:53:39;12.23;;;4.57;;
15748;SDS011;7976;52.526;13.326;2024-01-30T10:56:09;13.98;;;5.20;;
15748;SDS011;7976;52.526;13.326;2024-01-30T10:58:38;17.77;;;5.25;;
15748;SDS011;7976;52.526;13.326;2024-01-30T11:01:05;14.20;;;4.88;;
15748;SDS011;7976;52.526;13.326;2024-01-30T11:03:34;13.75;;;4.60;;
15748;SDS011;7976;52.526;13.326;2024-01-30T11:06:02;13.55;;;4.50;;
15748;SDS011;7976;52.526;13.326;2024-01-30T11:08:31;13.48;;;4.70;;
15748;SDS011;7976;52.526;13.326;2024-01-30T11:10:59;16.10;;;4.60;;
15748;SDS011;7976;52.526;13.326;2024-01-30T11:13:28;11.27;;;4.50;;
15748;SDS011;7976;52.526;13.326;2024-01-30T11:15:59;13.27;;;5.20;;
15748;SDS011;7976;52.526;13.326;2024-01-30T11:18:28;13.68;;;5.13;;
15748;SDS011;7976;52.526;13.326;2024-01-30T11:20:56;14.38;;;5.40;;
15748;SDS011;7976;52.526;13.326;2024-01-30T11:23:26;12.07;;;4.60;;
15748;SDS011;7976;52.526;13.326;2024-01-30T11:25:53;12.15;;;4.70;;
15748;SDS011;7976;52.526;13.326;2024-01-30T11:28:22;12.77;;;4.57;;
15748;SDS011;7976;52.526;13.326;2024-01-30T11:30:51;14.45;;;4.82;;
15748;SDS011;7976;52.526;13.326;2024-01-30T11:33:29;12.02;;;4.97;;
15748;SDS011;7976;52.526;13.326;2024-01-30T11:35:58;14.25;;;4.60;;
15748;SDS011;7976;52.526;13.326;2024-01-30T11:38:26;16.38;;;5.10;;
15748;SDS011;7976;52.526;13.326;2024-01-30T11:40:54;15.07;;;5.57;;
15748;SDS011;7976;52.526;13.326;2024-01-30T11:43:22;18.08;;;5.13;;
15748;SDS011;7976;52.526;13.326;2024-01-30T11:45:51;11.68;;;4.82;;
15748;SDS011;7976;52.526;13.326;2024-01-30T11:48:18;14.70;;;5.32;;
15748;SDS011;7976;52.526;13.326;2024-01-30T11:50:45;12.75;;;5.22;;
15748;SDS011;7976;52.526;13.326;2024-01-30T11:53:13;13.05;;;5.07;;
15748;SDS011;7976;52.526;13.326;2024-01-30T11:55:40;17.88;;;4.93;;
15748;SDS011;7976;52.526;13.326;2024-01-30T11:58:07;14.60;;;5.45;;
15748;SDS011;7976;52.526;13.326;2024-01-30T12:00:34;15.48;;;5.32;;
15748;SDS011;7976;52.526;13.326;2024-01-30T12:03:02;12.82;;;5.05;;
15748;SDS011;7976;52.526;13.326;2024-01-30T12:05:32;14.80;;;5.05;;
15748;SDS011;7976;52.526;13.326;2024-01-30T12:07:59;16.52;;;4.93;;
15748;SDS011;7976;52.526;13.326;2024-01-30T12:10:25;14.70;;;5.03;;
15748;SDS011;7976;52.526;13.326;2024-01-30T12:12:52;13.05;;;5.30;;
15748;SDS011;7976;52.526;13.326;2024-01-30T12:15:21;15.45;;;5.30;;
15748;SDS011;7976;52.526;13.326;2024-01-30T12:17:49;14.50;;;5.85;;
15748;SDS011;7976;52.526;13.326;2024-01-30T12:20:18;13.30;;;5.53;;
15748;SDS011;7976;52.526;13.326;2024-01-30T12:22:46;14.90;;;4.90;;
15748;SDS011;7976;52.526;13.326;2024-01-30T12:25:15;16.50;;;6.03;;
15748;SDS011;7976;52.526;13.326;2024-01-30T12:27:44;13.85;;;5.60;;
15748;SDS011;7976;52.526;13.326;2024-01-30T12:30:15;14.38;;;5.60;;
15748;SDS011;7976;52.526;13.326;2024-01-30T12:32:43;14.82;;;5.47;;
15748;SDS011;7976;52.526;13.326;2024-01-30T12:35:12;15.15;;;5.25;;
15748;SDS011;7976;52.526;13.326;2024-01-30T12:37:42;14.82;;;5.10;;
15748;SDS011;7976;52.526;13.326;2024-01-30T12:40:11;13.48;;;5.28;;
15748;SDS011;7976;52.526;13.326;2024-01-30T12:42:39;15.90;;;6.10;;
15748;SDS011;7976;52.526;13.326;2024-01-30T12:45:08;15.57;;;5.38;;
15748;SDS011;7976;52.526;13.326;2024-01-30T12:47:35;18.00;;;5.97;;
15748;SDS011;7976;52.526;13.326;2024-01-30T12:50:02;13.40;;;5.57;;
15748;SDS011;7976;52.526;13.326;2024-01-30T12:52:30;14.05;;;5.40;;
15748;SDS011;7976;52.526;13.326;2024-01-30T12:54:58;15.00;;;5.65;;
15748;SDS011;7976;52.526;13.326;2024-01-30T12:57:25;13.50;;;6.00;;
15748;SDS011;7976;52.526;13.326;2024-01-30T12:59:52;16.42;;;5.82;;
15748;SDS011;7976;52.526;13.326;2024-01-30T13:02:19;15.82;;;5.45;;
15748;SDS011;7976;52.526;13.326;2024-01-30T13:04:46;12.57;;;5.45;;
15748;SDS011;7976;52.526;13.326;2024-01-30T13:07:13;14.40;;;5.80;;
15748;SDS011;7976;52.526;13.326;2024-01-30T13:09:40;15.48;;;5.88;;
15748;SDS011;7976;52.526;13.326;2024-01-30T13:12:08;14.20;;;5.43;;
15748;SDS011;7976;52.526;13.326;2024-01-30T13:14:35;14.77;;;5.00;;
15748;SDS011;7976;52.526;13.326;2024-01-30T13:17:02;12.02;;;5.07;;
15748;SDS011;7976;52.526;13.326;2024-01-30T13:19:29;13.68;;;5.50;;
15748;SDS011;7976;52.526;13.326;2024-01-30T13:21:56;13.77;;;5.22;;
15748;SDS011;7976;52.526;13.326;2024-01-30T13:24:23;14.48;;;5.25;;
15748;SDS011;7976;52.526;13.326;2024-01-30T13:26:50;12.93;;;5.22;;
15748;SDS011;7976;52.526;13.326;2024-01-30T13:29:19;15.32;;;5.57;;
15748;SDS011;7976;52.526;13.326;2024-01-30T13:31:46;12.48;;;5.10;;
15748;SDS011;7976;52.526;13.326;2024-01-30T13:34:13;15.25;;;5.20;;
15748;SDS011;7976;52.526;13.326;2024-01-30T13:36:40;14.00;;;5.45;;
15748;SDS011;7976;52.526;13.326;2024-01-30T13:39:08;14.90;;;5.10;;
15748;SDS011;7976;52.526;13.326;2024-01-30T13:41:37;13.20;;;5.57;;
15748;SDS011;7976;52.526;13.326;2024-01-30T13:44:04;15.77;;;5.40;;
15748;SDS011;7976;52.526;13.326;2024-01-30T13:46:32;12.82;;;5.53;;
15748;SDS011;7976;52.526;13.326;2024-01-30T13:48:59;19.27;;;6.30;;
15748;SDS011;7976;52.526;13.326;2024-01-30T13:51:26;12.88;;;5.10;;
15748;SDS011;7976;52.526;13.326;2024-01-30T13:53:53;18.10;;;5.78;;
15748;SDS011;7976;52.526;13.326;2024-01-30T13:56:20;16.50;;;5.82;;
15748;SDS011;7976;52.526;13.326;2024-01-30T13:58:47;20.48;;;6.63;;
15748;SDS011;7976;52.526;13.326;2024-01-30T14:01:15;17.15;;;5.95;;
15748;SDS011;7976;52.526;13.326;2024-01-30T14:03:43;15.52;;;5.47;;
15748;SDS011;7976;52.526;13.326;2024-01-30T14:06:10;18.77;;;5.38;;
15748;SDS011;7976;52.526;13.326;2024-01-30T14:08:37;16.25;;;5.50;;
15748;SDS011;7976;52.526;13.326;2024-01-30T14:11:04;15.15;;;5.32;;
15748;SDS011;7976;52.526;13.326;2024-01-30T14:13:31;14.07;;;5.75;;
15748;SDS011;7976;52.526;13.326;2024-01-30T14:15:58;15.40;;;5.75;;
15748;SDS011;7976;52.526;13.326;2024-01-30T14:18:25;16.33;;;5.18;;
15748;SDS011;7976;52.526;13.326;2024-01-30T14:20:54;15.50;;;4.70;;
15748;SDS011;7976;52.526;13.326;2024-01-30T14:23:21;15.18;;;5.10;;
15748;SDS011;7976;52.526;13.326;2024-01-30T14:25:47;11.88;;;5.38;;
15748;SDS011;7976;52.526;13.326;2024-01-30T14:28:16;17.40;;;5.53;;
15748;SDS011;7976;52.526;13.326;2024-01-30T14:30:44;14.30;;;5.40;;
15748;SDS011;7976;52.526;13.326;2024-01-30T14:33:10;12.30;;;5.53;;
15748;SDS011;7976;52.526;13.326;2024-01-30T14:35:38;13.82;;;5.30;;
15748;SDS011;7976;52.526;13.326;2024-01-30T14:38:06;15.10;;;5.32;;